sensor_id;sensor_type;location;lat;lon;timestamp;temperature;humidity
22645;DHT22;11489;50.834;6.752;2023-07-31T00:00:25;17.30;92.80
22645;DHT22;11489;50.834;6.752;2023-07-31T00:02:52;17.30;92.80
22645;DHT22;11489;50.834;6.752;2023-07-31T00:05:18;17.30;92.80
22645;DHT22;11489;50.834;6.752;2023-07-31T00:07:43;17.40;92.90
22645;DHT22;11489;50.834;6.752;2023-07-31T00:10:09;17.40;92.90
22645;DHT22;11489;50.834;6.752;2023-07-31T00:12:35;17.40;92.80
22645;DHT22;11489;50.834;6.752;2023-07-31T00:15:01;17.40;92.80
22645;DHT22;11489;50.834;6.752;2023-07-31T00:17:27;17.40;92.80
22645;DHT22;11489;50.834;6.752;2023-07-31T00:19:53;17.40;92.70
22645;DHT22;11489;50.834;6.752;2023-07-31T00:22:19;17.40;92.70
22645;DHT22;11489;50.834;6.752;2023-07-31T00:24:44;17.50;92.70
22645;DHT22;11489;50.834;6.752;2023-07-31T00:27:10;17.50;92.70
22645;DHT22;11489;50.834;6.752;2023-07-31T00:29:36;17.50;92.60
22645;DHT22;11489;50.834;6.752;2023-07-31T00:32:01;17.50;92.60
22645;DHT22;11489;50.834;6.752;2023-07-31T00:34:27;17.50;92.50
22645;DHT22;11489;50.834;6.752;2023-07-31T00:36:52;17.50;92.50
22645;DHT22;11489;50.834;6.752;2023-07-31T00:39:18;17.50;92.50
22645;DHT22;11489;50.834;6.752;2023-07-31T00:41:45;17.60;92.40
22645;DHT22;11489;50.834;6.752;2023-07-31T00:44:10;17.50;92.40
22645;DHT22;11489;50.834;6.752;2023-07-31T00:46:36;17.50;92.40
22645;DHT22;11489;50.834;6.752;2023-07-31T00:49:02;17.60;92.40
22645;DHT22;11489;50.834;6.752;2023-07-31T00:51:29;17.50;92.40
22645;DHT22;11489;50.834;6.752;2023-07-31T00:53:55;17.60;92.40
22645;DHT22;11489;50.834;6.752;2023-07-31T00:56:22;17.50;92.40
22645;DHT22;11489;50.834;6.752;2023-07-31T00:58:47;17.50;92.40
22645;DHT22;11489;50.834;6.752;2023-07-31T01:01:13;17.50;92.30
22645;DHT22;11489;50.834;6.752;2023-07-31T01:03:39;17.50;92.30
22645;DHT22;11489;50.834;6.752;2023-07-31T01:06:15;17.50;92.30
22645;DHT22;11489;50.834;6.752;2023-07-31T01:11:17;17.50;92.30
22645;DHT22;11489;50.834;6.752;2023-07-31T01:13:44;17.50;92.20
22645;DHT22;11489;50.834;6.752;2023-07-31T01:16:11;17.50;92.30
22645;DHT22;11489;50.834;6.752;2023-07-31T01:18:37;17.50;92.30
22645;DHT22;11489;50.834;6.752;2023-07-31T01:21:15;17.50;92.30
22645;DHT22;11489;50.834;6.752;2023-07-31T01:26:31;17.60;91.80
22645;DHT22;11489;50.834;6.752;2023-07-31T01:29:17;17.50;92.30
22645;DHT22;11489;50.834;6.752;2023-07-31T01:31:48;17.50;91.80
22645;DHT22;11489;50.834;6.752;2023-07-31T01:34:17;17.50;92.30
22645;DHT22;11489;50.834;6.752;2023-07-31T01:36:44;17.50;92.30
22645;DHT22;11489;50.834;6.752;2023-07-31T01:39:09;17.50;92.30
22645;DHT22;11489;50.834;6.752;2023-07-31T01:41:35;17.50;92.30
22645;DHT22;11489;50.834;6.752;2023-07-31T01:44:00;17.50;92.30
22645;DHT22;11489;50.834;6.752;2023-07-31T01:46:26;17.50;92.30
22645;DHT22;11489;50.834;6.752;2023-07-31T01:48:52;17.50;92.30
22645;DHT22;11489;50.834;6.752;2023-07-31T01:51:17;17.50;92.30
22645;DHT22;11489;50.834;6.752;2023-07-31T01:53:43;17.50;92.30
22645;DHT22;11489;50.834;6.752;2023-07-31T01:56:08;17.50;92.30
22645;DHT22;11489;50.834;6.752;2023-07-31T01:58:34;17.60;92.30
22645;DHT22;11489;50.834;6.752;2023-07-31T02:01:00;17.50;92.20
22645;DHT22;11489;50.834;6.752;2023-07-31T02:03:25;17.50;92.20
22645;DHT22;11489;50.834;6.752;2023-07-31T02:05:51;17.60;92.30
22645;DHT22;11489;50.834;6.752;2023-07-31T02:08:17;17.50;92.20
22645;DHT22;11489;50.834;6.752;2023-07-31T02:10:42;17.50;92.20
22645;DHT22;11489;50.834;6.752;2023-07-31T02:13:08;17.50;92.20
22645;DHT22;11489;50.834;6.752;2023-07-31T02:15:34;17.50;92.20
22645;DHT22;11489;50.834;6.752;2023-07-31T02:18:00;17.50;92.20
22645;DHT22;11489;50.834;6.752;2023-07-31T02:20:25;17.60;92.30
22645;DHT22;11489;50.834;6.752;2023-07-31T02:22:51;17.60;92.20
22645;DHT22;11489;50.834;6.752;2023-07-31T02:25:17;17.60;92.20
22645;DHT22;11489;50.834;6.752;2023-07-31T02:27:42;17.60;92.20
22645;DHT22;11489;50.834;6.752;2023-07-31T02:30:08;17.60;92.10
22645;DHT22;11489;50.834;6.752;2023-07-31T02:32:34;17.60;92.10
22645;DHT22;11489;50.834;6.752;2023-07-31T02:35:00;17.70;92.50
22645;DHT22;11489;50.834;6.752;2023-07-31T02:37:26;17.70;92.50
22645;DHT22;11489;50.834;6.752;2023-07-31T02:39:51;17.70;92.10
22645;DHT22;11489;50.834;6.752;2023-07-31T02:42:17;17.70;92.20
22645;DHT22;11489;50.834;6.752;2023-07-31T02:44:43;17.70;92.20
22645;DHT22;11489;50.834;6.752;2023-07-31T02:47:08;17.70;92.20
22645;DHT22;11489;50.834;6.752;2023-07-31T02:49:34;17.70;92.10
22645;DHT22;11489;50.834;6.752;2023-07-31T02:52:00;17.70;92.10
22645;DHT22;11489;50.834;6.752;2023-07-31T02:54:25;17.70;92.10
22645;DHT22;11489;50.834;6.752;2023-07-31T02:56:51;17.70;92.10
22645;DHT22;11489;50.834;6.752;2023-07-31T02:59:17;17.70;92.10
22645;DHT22;11489;50.834;6.752;2023-07-31T03:01:42;17.80;92.10
22645;DHT22;11489;50.834;6.752;2023-07-31T03:04:08;17.80;92.10
22645;DHT22;11489;50.834;6.752;2023-07-31T03:06:34;17.80;92.10
22645;DHT22;11489;50.834;6.752;2023-07-31T03:08:59;17.80;92.10
22645;DHT22;11489;50.834;6.752;2023-07-31T03:11:25;17.80;92.00
22645;DHT22;11489;50.834;6.752;2023-07-31T03:13:50;17.80;92.00
22645;DHT22;11489;50.834;6.752;2023-07-31T03:16:16;17.80;92.00
22645;DHT22;11489;50.834;6.752;2023-07-31T03:18:42;17.80;92.10
22645;DHT22;11489;50.834;6.752;2023-07-31T03:21:07;17.80;92.00
22645;DHT22;11489;50.834;6.752;2023-07-31T03:23:33;17.80;92.00
22645;DHT22;11489;50.834;6.752;2023-07-31T03:26:01;17.80;92.10
22645;DHT22;11489;50.834;6.752;2023-07-31T03:28:28;17.80;92.10
22645;DHT22;11489;50.834;6.752;2023-07-31T03:30:54;17.80;92.10
22645;DHT22;11489;50.834;6.752;2023-07-31T03:33:20;17.80;92.00
22645;DHT22;11489;50.834;6.752;2023-07-31T03:35:46;17.90;92.00
22645;DHT22;11489;50.834;6.752;2023-07-31T03:38:12;17.90;92.00
22645;DHT22;11489;50.834;6.752;2023-07-31T03:40:37;17.90;92.00
22645;DHT22;11489;50.834;6.752;2023-07-31T03:43:03;17.90;92.00
22645;DHT22;11489;50.834;6.752;2023-07-31T03:45:28;17.90;92.00
22645;DHT22;11489;50.834;6.752;2023-07-31T03:47:54;17.90;92.00
22645;DHT22;11489;50.834;6.752;2023-07-31T03:50:20;17.90;92.00
22645;DHT22;11489;50.834;6.752;2023-07-31T03:52:46;17.90;92.00
22645;DHT22;11489;50.834;6.752;2023-07-31T03:55:12;17.90;91.90
22645;DHT22;11489;50.834;6.752;2023-07-31T03:57:38;17.90;91.90
22645;DHT22;11489;50.834;6.752;2023-07-31T04:00:04;17.90;91.90
22645;DHT22;11489;50.834;6.752;2023-07-31T04:02:29;17.90;91.90
22645;DHT22;11489;50.834;6.752;2023-07-31T04:04:55;17.90;91.90
22645;DHT22;11489;50.834;6.752;2023-07-31T04:07:21;17.90;91.80
22645;DHT22;11489;50.834;6.752;2023-07-31T04:09:46;17.90;91.80
22645;DHT22;11489;50.834;6.752;2023-07-31T04:12:12;17.90;91.80
22645;DHT22;11489;50.834;6.752;2023-07-31T04:14:37;17.90;91.80
22645;DHT22;11489;50.834;6.752;2023-07-31T04:17:03;17.90;91.90
22645;DHT22;11489;50.834;6.752;2023-07-31T04:19:29;17.90;91.90
22645;DHT22;11489;50.834;6.752;2023-07-31T04:21:54;17.90;91.80
22645;DHT22;11489;50.834;6.752;2023-07-31T04:24:20;17.90;91.90
22645;DHT22;11489;50.834;6.752;2023-07-31T04:26:53;17.90;91.90
22645;DHT22;11489;50.834;6.752;2023-07-31T04:29:19;17.90;91.70
22645;DHT22;11489;50.834;6.752;2023-07-31T04:31:45;17.90;91.90
22645;DHT22;11489;50.834;6.752;2023-07-31T04:34:11;17.90;91.90
22645;DHT22;11489;50.834;6.752;2023-07-31T04:36:39;18.00;91.90
22645;DHT22;11489;50.834;6.752;2023-07-31T04:39:05;18.00;91.90
22645;DHT22;11489;50.834;6.752;2023-07-31T04:41:31;18.00;91.90
22645;DHT22;11489;50.834;6.752;2023-07-31T04:43:56;18.00;91.90
22645;DHT22;11489;50.834;6.752;2023-07-31T04:46:22;18.00;91.90
22645;DHT22;11489;50.834;6.752;2023-07-31T04:48:48;18.00;92.20
22645;DHT22;11489;50.834;6.752;2023-07-31T04:51:13;18.10;91.90
22645;DHT22;11489;50.834;6.752;2023-07-31T04:53:39;18.10;91.90
22645;DHT22;11489;50.834;6.752;2023-07-31T04:56:04;18.10;91.90
22645;DHT22;11489;50.834;6.752;2023-07-31T04:58:30;18.10;91.90
22645;DHT22;11489;50.834;6.752;2023-07-31T05:00:56;18.10;91.80
22645;DHT22;11489;50.834;6.752;2023-07-31T05:03:21;18.10;91.80
22645;DHT22;11489;50.834;6.752;2023-07-31T05:05:47;18.20;91.80
22645;DHT22;11489;50.834;6.752;2023-07-31T05:08:13;18.20;91.80
22645;DHT22;11489;50.834;6.752;2023-07-31T05:10:39;18.20;91.80
22645;DHT22;11489;50.834;6.752;2023-07-31T05:13:04;18.20;91.80
22645;DHT22;11489;50.834;6.752;2023-07-31T05:15:30;18.30;91.90
22645;DHT22;11489;50.834;6.752;2023-07-31T05:17:56;18.30;91.80
22645;DHT22;11489;50.834;6.752;2023-07-31T05:20:22;18.30;91.80
22645;DHT22;11489;50.834;6.752;2023-07-31T05:22:47;18.30;91.80
22645;DHT22;11489;50.834;6.752;2023-07-31T05:25:13;18.40;91.90
22645;DHT22;11489;50.834;6.752;2023-07-31T05:27:39;18.50;91.90
22645;DHT22;11489;50.834;6.752;2023-07-31T05:30:05;18.50;91.80
22645;DHT22;11489;50.834;6.752;2023-07-31T05:32:31;18.50;91.80
22645;DHT22;11489;50.834;6.752;2023-07-31T05:34:57;18.50;91.80
22645;DHT22;11489;50.834;6.752;2023-07-31T05:37:23;18.50;91.70
22645;DHT22;11489;50.834;6.752;2023-07-31T05:39:49;18.60;91.70
22645;DHT22;11489;50.834;6.752;2023-07-31T05:42:14;18.60;91.60
22645;DHT22;11489;50.834;6.752;2023-07-31T05:44:40;18.60;91.50
22645;DHT22;11489;50.834;6.752;2023-07-31T05:47:06;18.60;91.50
22645;DHT22;11489;50.834;6.752;2023-07-31T05:49:31;18.60;91.40
22645;DHT22;11489;50.834;6.752;2023-07-31T05:51:57;18.60;91.40
22645;DHT22;11489;50.834;6.752;2023-07-31T05:54:23;18.60;91.30
22645;DHT22;11489;50.834;6.752;2023-07-31T05:56:48;18.60;91.30
22645;DHT22;11489;50.834;6.752;2023-07-31T05:59:14;18.60;91.20
22645;DHT22;11489;50.834;6.752;2023-07-31T06:01:40;18.60;91.20
22645;DHT22;11489;50.834;6.752;2023-07-31T06:04:05;18.60;91.20
22645;DHT22;11489;50.834;6.752;2023-07-31T06:06:31;18.60;91.10
22645;DHT22;11489;50.834;6.752;2023-07-31T06:08:57;18.50;90.90
22645;DHT22;11489;50.834;6.752;2023-07-31T06:11:22;18.50;90.90
22645;DHT22;11489;50.834;6.752;2023-07-31T06:13:48;18.30;90.90
22645;DHT22;11489;50.834;6.752;2023-07-31T06:16:15;18.20;90.90
22645;DHT22;11489;50.834;6.752;2023-07-31T06:18:42;18.10;91.00
22645;DHT22;11489;50.834;6.752;2023-07-31T06:21:09;18.00;91.20
22645;DHT22;11489;50.834;6.752;2023-07-31T06:23:35;17.90;91.40
22645;DHT22;11489;50.834;6.752;2023-07-31T06:26:01;17.80;91.60
22645;DHT22;11489;50.834;6.752;2023-07-31T06:28:31;17.70;91.80
22645;DHT22;11489;50.834;6.752;2023-07-31T06:31:00;17.60;92.00
22645;DHT22;11489;50.834;6.752;2023-07-31T06:33:26;17.60;92.20
22645;DHT22;11489;50.834;6.752;2023-07-31T06:35:52;17.50;92.30
22645;DHT22;11489;50.834;6.752;2023-07-31T06:38:26;17.50;92.50
22645;DHT22;11489;50.834;6.752;2023-07-31T06:40:52;17.50;92.60
22645;DHT22;11489;50.834;6.752;2023-07-31T06:43:18;17.50;92.80
22645;DHT22;11489;50.834;6.752;2023-07-31T06:45:44;17.50;93.30
22645;DHT22;11489;50.834;6.752;2023-07-31T06:48:10;17.50;93.20
22645;DHT22;11489;50.834;6.752;2023-07-31T06:50:35;17.60;93.40
22645;DHT22;11489;50.834;6.752;2023-07-31T06:53:02;17.70;93.50
22645;DHT22;11489;50.834;6.752;2023-07-31T06:55:28;17.70;93.70
22645;DHT22;11489;50.834;6.752;2023-07-31T06:57:54;17.80;93.70
22645;DHT22;11489;50.834;6.752;2023-07-31T07:00:22;17.90;93.80
22645;DHT22;11489;50.834;6.752;2023-07-31T07:02:48;18.10;93.90
22645;DHT22;11489;50.834;6.752;2023-07-31T07:05:14;18.20;94.00
22645;DHT22;11489;50.834;6.752;2023-07-31T07:07:40;18.30;93.90
22645;DHT22;11489;50.834;6.752;2023-07-31T07:10:06;18.50;93.80
22645;DHT22;11489;50.834;6.752;2023-07-31T07:12:33;18.60;93.60
22645;DHT22;11489;50.834;6.752;2023-07-31T07:15:02;18.70;93.50
22645;DHT22;11489;50.834;6.752;2023-07-31T07:17:29;18.80;93.10
22645;DHT22;11489;50.834;6.752;2023-07-31T07:19:58;18.90;92.90
22645;DHT22;11489;50.834;6.752;2023-07-31T07:22:24;18.90;92.60
22645;DHT22;11489;50.834;6.752;2023-07-31T07:24:51;18.90;92.40
22645;DHT22;11489;50.834;6.752;2023-07-31T07:27:16;18.90;92.20
22645;DHT22;11489;50.834;6.752;2023-07-31T07:29:42;18.90;92.00
22645;DHT22;11489;50.834;6.752;2023-07-31T07:32:08;18.80;91.80
22645;DHT22;11489;50.834;6.752;2023-07-31T07:34:33;18.80;91.90
22645;DHT22;11489;50.834;6.752;2023-07-31T07:36:59;18.70;92.00
22645;DHT22;11489;50.834;6.752;2023-07-31T07:39:25;18.60;92.10
22645;DHT22;11489;50.834;6.752;2023-07-31T07:41:50;18.50;92.10
22645;DHT22;11489;50.834;6.752;2023-07-31T07:44:16;18.50;92.30
22645;DHT22;11489;50.834;6.752;2023-07-31T07:46:42;18.50;92.30
22645;DHT22;11489;50.834;6.752;2023-07-31T07:49:08;18.40;92.10
22645;DHT22;11489;50.834;6.752;2023-07-31T07:51:34;18.30;92.00
22645;DHT22;11489;50.834;6.752;2023-07-31T07:54:00;18.30;92.00
22645;DHT22;11489;50.834;6.752;2023-07-31T07:56:26;18.20;92.00
22645;DHT22;11489;50.834;6.752;2023-07-31T07:58:52;18.10;92.10
22645;DHT22;11489;50.834;6.752;2023-07-31T08:01:18;18.10;92.30
22645;DHT22;11489;50.834;6.752;2023-07-31T08:03:44;18.00;92.40
22645;DHT22;11489;50.834;6.752;2023-07-31T08:06:10;18.00;92.40
22645;DHT22;11489;50.834;6.752;2023-07-31T08:08:37;17.90;92.50
22645;DHT22;11489;50.834;6.752;2023-07-31T08:11:03;17.90;92.60
22645;DHT22;11489;50.834;6.752;2023-07-31T08:13:28;17.90;92.60
22645;DHT22;11489;50.834;6.752;2023-07-31T08:15:54;17.90;92.60
22645;DHT22;11489;50.834;6.752;2023-07-31T08:18:20;17.90;92.60
22645;DHT22;11489;50.834;6.752;2023-07-31T08:20:46;17.90;92.70
22645;DHT22;11489;50.834;6.752;2023-07-31T08:23:12;17.90;93.20
22645;DHT22;11489;50.834;6.752;2023-07-31T08:25:38;17.90;93.00
22645;DHT22;11489;50.834;6.752;2023-07-31T08:28:04;18.00;93.10
22645;DHT22;11489;50.834;6.752;2023-07-31T08:30:30;18.00;93.10
22645;DHT22;11489;50.834;6.752;2023-07-31T08:32:57;18.10;93.30
22645;DHT22;11489;50.834;6.752;2023-07-31T08:35:25;18.10;93.50
22645;DHT22;11489;50.834;6.752;2023-07-31T08:37:51;18.20;93.60
22645;DHT22;11489;50.834;6.752;2023-07-31T08:40:17;18.40;94.00
22645;DHT22;11489;50.834;6.752;2023-07-31T08:42:46;18.50;93.70
22645;DHT22;11489;50.834;6.752;2023-07-31T08:45:17;18.60;93.40
22645;DHT22;11489;50.834;6.752;2023-07-31T08:47:48;18.70;93.20
22645;DHT22;11489;50.834;6.752;2023-07-31T08:50:15;18.80;92.80
22645;DHT22;11489;50.834;6.752;2023-07-31T08:52:41;18.80;92.70
22645;DHT22;11489;50.834;6.752;2023-07-31T08:55:07;18.80;92.50
22645;DHT22;11489;50.834;6.752;2023-07-31T08:57:37;18.90;92.40
22645;DHT22;11489;50.834;6.752;2023-07-31T09:00:08;18.90;92.10
22645;DHT22;11489;50.834;6.752;2023-07-31T09:02:38;18.90;91.90
22645;DHT22;11489;50.834;6.752;2023-07-31T09:05:07;18.90;92.10
22645;DHT22;11489;50.834;6.752;2023-07-31T09:07:34;18.90;91.90
22645;DHT22;11489;50.834;6.752;2023-07-31T09:10:02;18.80;91.60
22645;DHT22;11489;50.834;6.752;2023-07-31T09:12:28;18.80;91.70
22645;DHT22;11489;50.834;6.752;2023-07-31T09:14:53;18.80;91.70
22645;DHT22;11489;50.834;6.752;2023-07-31T09:17:33;18.70;91.70
22645;DHT22;11489;50.834;6.752;2023-07-31T09:20:19;18.70;91.30
22645;DHT22;11489;50.834;6.752;2023-07-31T09:22:46;18.70;91.00
22645;DHT22;11489;50.834;6.752;2023-07-31T09:27:53;18.80;92.00
22645;DHT22;11489;50.834;6.752;2023-07-31T09:30:19;18.80;92.20
22645;DHT22;11489;50.834;6.752;2023-07-31T09:32:46;18.90;92.70
22645;DHT22;11489;50.834;6.752;2023-07-31T09:37:53;19.10;93.00
22645;DHT22;11489;50.834;6.752;2023-07-31T09:40:35;19.20;92.90
22645;DHT22;11489;50.834;6.752;2023-07-31T09:43:03;19.40;92.00
22645;DHT22;11489;50.834;6.752;2023-07-31T09:45:30;19.50;93.20
22645;DHT22;11489;50.834;6.752;2023-07-31T09:47:56;19.70;93.20
22645;DHT22;11489;50.834;6.752;2023-07-31T09:50:24;19.80;93.10
22645;DHT22;11489;50.834;6.752;2023-07-31T09:52:51;20.00;93.10
22645;DHT22;11489;50.834;6.752;2023-07-31T09:55:18;20.20;93.20
22645;DHT22;11489;50.834;6.752;2023-07-31T09:57:46;20.40;93.00
22645;DHT22;11489;50.834;6.752;2023-07-31T10:00:13;20.60;92.90
22645;DHT22;11489;50.834;6.752;2023-07-31T10:02:39;20.80;92.60
22645;DHT22;11489;50.834;6.752;2023-07-31T10:05:06;21.00;92.10
22645;DHT22;11489;50.834;6.752;2023-07-31T10:07:39;21.20;91.90
22645;DHT22;11489;50.834;6.752;2023-07-31T10:10:08;21.30;91.30
22645;DHT22;11489;50.834;6.752;2023-07-31T10:12:37;21.40;91.40
22645;DHT22;11489;50.834;6.752;2023-07-31T10:15:04;21.50;91.00
22645;DHT22;11489;50.834;6.752;2023-07-31T10:17:30;21.50;90.70
22645;DHT22;11489;50.834;6.752;2023-07-31T10:20:00;21.60;90.80
22645;DHT22;11489;50.834;6.752;2023-07-31T10:22:29;21.60;90.40
22645;DHT22;11489;50.834;6.752;2023-07-31T10:24:58;21.70;90.70
22645;DHT22;11489;50.834;6.752;2023-07-31T10:27:23;21.70;90.50
22645;DHT22;11489;50.834;6.752;2023-07-31T10:29:50;21.80;90.70
22645;DHT22;11489;50.834;6.752;2023-07-31T10:32:17;21.90;90.60
22645;DHT22;11489;50.834;6.752;2023-07-31T10:34:44;22.00;90.60
22645;DHT22;11489;50.834;6.752;2023-07-31T10:37:27;22.10;90.50
22645;DHT22;11489;50.834;6.752;2023-07-31T10:40:05;22.20;88.00
22645;DHT22;11489;50.834;6.752;2023-07-31T10:42:33;22.30;88.00
22645;DHT22;11489;50.834;6.752;2023-07-31T10:45:02;22.30;89.40
22645;DHT22;11489;50.834;6.752;2023-07-31T10:47:28;22.30;88.70
22645;DHT22;11489;50.834;6.752;2023-07-31T10:50:11;22.30;88.10
22645;DHT22;11489;50.834;6.752;2023-07-31T10:52:37;22.30;85.20
22645;DHT22;11489;50.834;6.752;2023-07-31T10:57:50;22.20;84.80
22645;DHT22;11489;50.834;6.752;2023-07-31T11:05:46;22.00;85.30
22645;DHT22;11489;50.834;6.752;2023-07-31T11:08:32;22.00;84.40
22645;DHT22;11489;50.834;6.752;2023-07-31T11:13:30;21.90;87.80
22645;DHT22;11489;50.834;6.752;2023-07-31T11:16:02;21.80;89.10
22645;DHT22;11489;50.834;6.752;2023-07-31T11:18:28;21.80;87.30
22645;DHT22;11489;50.834;6.752;2023-07-31T11:20:54;21.80;88.90
22645;DHT22;11489;50.834;6.752;2023-07-31T11:23:21;21.90;89.20
22645;DHT22;11489;50.834;6.752;2023-07-31T11:25:47;21.90;89.60
22645;DHT22;11489;50.834;6.752;2023-07-31T11:28:14;22.00;89.60
22645;DHT22;11489;50.834;6.752;2023-07-31T11:30:41;22.10;89.20
22645;DHT22;11489;50.834;6.752;2023-07-31T11:33:09;22.20;88.80
22645;DHT22;11489;50.834;6.752;2023-07-31T11:35:40;22.20;89.60
22645;DHT22;11489;50.834;6.752;2023-07-31T11:38:07;22.40;90.20
22645;DHT22;11489;50.834;6.752;2023-07-31T11:40:42;22.60;90.10
22645;DHT22;11489;50.834;6.752;2023-07-31T11:43:08;22.90;88.00
22645;DHT22;11489;50.834;6.752;2023-07-31T11:45:33;23.00;89.40
22645;DHT22;11489;50.834;6.752;2023-07-31T11:48:01;23.20;88.80
22645;DHT22;11489;50.834;6.752;2023-07-31T11:50:27;23.30;88.10
22645;DHT22;11489;50.834;6.752;2023-07-31T11:52:57;23.50;87.50
22645;DHT22;11489;50.834;6.752;2023-07-31T11:55:24;23.50;86.30
22645;DHT22;11489;50.834;6.752;2023-07-31T11:57:50;23.60;86.20
22645;DHT22;11489;50.834;6.752;2023-07-31T12:00:17;23.50;85.20
22645;DHT22;11489;50.834;6.752;2023-07-31T12:02:43;23.40;85.20
22645;DHT22;11489;50.834;6.752;2023-07-31T12:05:13;23.30;85.30
22645;DHT22;11489;50.834;6.752;2023-07-31T12:08:09;23.30;84.70
22645;DHT22;11489;50.834;6.752;2023-07-31T12:10:34;23.30;82.00
22645;DHT22;11489;50.834;6.752;2023-07-31T12:13:08;23.20;85.70
22645;DHT22;11489;50.834;6.752;2023-07-31T12:15:41;23.20;85.70
22645;DHT22;11489;50.834;6.752;2023-07-31T12:18:10;23.10;84.70
22645;DHT22;11489;50.834;6.752;2023-07-31T12:20:43;23.10;85.60
22645;DHT22;11489;50.834;6.752;2023-07-31T12:23:21;23.10;85.00
22645;DHT22;11489;50.834;6.752;2023-07-31T12:26:15;23.00;84.10
22645;DHT22;11489;50.834;6.752;2023-07-31T12:28:49;23.10;83.30
22645;DHT22;11489;50.834;6.752;2023-07-31T12:31:17;23.00;83.80
22645;DHT22;11489;50.834;6.752;2023-07-31T12:33:43;22.90;85.50
22645;DHT22;11489;50.834;6.752;2023-07-31T12:36:14;22.90;85.40
22645;DHT22;11489;50.834;6.752;2023-07-31T12:38:41;22.80;85.00
22645;DHT22;11489;50.834;6.752;2023-07-31T12:41:07;22.80;85.30
22645;DHT22;11489;50.834;6.752;2023-07-31T12:43:34;22.70;85.40
22645;DHT22;11489;50.834;6.752;2023-07-31T12:46:00;22.70;85.50
22645;DHT22;11489;50.834;6.752;2023-07-31T12:48:25;22.60;85.10
22645;DHT22;11489;50.834;6.752;2023-07-31T12:50:51;22.60;86.00
22645;DHT22;11489;50.834;6.752;2023-07-31T12:53:17;22.50;85.70
22645;DHT22;11489;50.834;6.752;2023-07-31T12:55:42;22.50;86.10
22645;DHT22;11489;50.834;6.752;2023-07-31T12:58:08;22.60;86.40
22645;DHT22;11489;50.834;6.752;2023-07-31T13:00:34;22.60;86.70
22645;DHT22;11489;50.834;6.752;2023-07-31T13:03:00;22.60;86.50
22645;DHT22;11489;50.834;6.752;2023-07-31T13:05:27;22.70;86.30
22645;DHT22;11489;50.834;6.752;2023-07-31T13:07:53;22.70;85.90
22645;DHT22;11489;50.834;6.752;2023-07-31T13:10:19;22.70;85.70
22645;DHT22;11489;50.834;6.752;2023-07-31T13:12:44;22.60;85.10
22645;DHT22;11489;50.834;6.752;2023-07-31T13:15:10;22.60;85.10
22645;DHT22;11489;50.834;6.752;2023-07-31T13:17:36;22.50;85.10
22645;DHT22;11489;50.834;6.752;2023-07-31T13:20:02;22.50;85.60
22645;DHT22;11489;50.834;6.752;2023-07-31T13:22:29;22.50;86.00
22645;DHT22;11489;50.834;6.752;2023-07-31T13:24:55;22.50;86.10
22645;DHT22;11489;50.834;6.752;2023-07-31T13:27:20;22.60;86.20
22645;DHT22;11489;50.834;6.752;2023-07-31T13:29:51;22.60;86.10
22645;DHT22;11489;50.834;6.752;2023-07-31T13:32:18;22.70;85.20
22645;DHT22;11489;50.834;6.752;2023-07-31T13:34:45;22.70;85.80
22645;DHT22;11489;50.834;6.752;2023-07-31T13:37:11;22.70;85.30
22645;DHT22;11489;50.834;6.752;2023-07-31T13:39:37;22.80;85.30
22645;DHT22;11489;50.834;6.752;2023-07-31T13:42:04;22.80;85.10
22645;DHT22;11489;50.834;6.752;2023-07-31T13:44:32;22.90;85.40
22645;DHT22;11489;50.834;6.752;2023-07-31T13:46:59;22.90;85.50
22645;DHT22;11489;50.834;6.752;2023-07-31T13:49:25;22.90;85.60
22645;DHT22;11489;50.834;6.752;2023-07-31T13:51:51;23.00;85.70
22645;DHT22;11489;50.834;6.752;2023-07-31T13:54:16;23.10;85.50
22645;DHT22;11489;50.834;6.752;2023-07-31T13:56:43;23.20;85.30
22645;DHT22;11489;50.834;6.752;2023-07-31T13:59:08;23.30;85.10
22645;DHT22;11489;50.834;6.752;2023-07-31T14:01:34;23.40;84.60
22645;DHT22;11489;50.834;6.752;2023-07-31T14:03:59;23.50;84.30
22645;DHT22;11489;50.834;6.752;2023-07-31T14:06:25;23.50;84.00
22645;DHT22;11489;50.834;6.752;2023-07-31T14:08:51;23.50;83.10
22645;DHT22;11489;50.834;6.752;2023-07-31T14:11:16;23.40;82.40
22645;DHT22;11489;50.834;6.752;2023-07-31T14:13:42;23.40;82.30
22645;DHT22;11489;50.834;6.752;2023-07-31T14:16:08;23.30;82.00
22645;DHT22;11489;50.834;6.752;2023-07-31T14:18:33;23.20;81.50
22645;DHT22;11489;50.834;6.752;2023-07-31T14:20:59;23.10;81.90
22645;DHT22;11489;50.834;6.752;2023-07-31T14:23:25;23.00;82.00
22645;DHT22;11489;50.834;6.752;2023-07-31T14:25:50;22.90;82.00
22645;DHT22;11489;50.834;6.752;2023-07-31T14:28:16;22.80;82.40
22645;DHT22;11489;50.834;6.752;2023-07-31T14:30:42;22.70;82.30
22645;DHT22;11489;50.834;6.752;2023-07-31T14:33:08;22.70;82.40
22645;DHT22;11489;50.834;6.752;2023-07-31T14:35:34;22.60;82.30
22645;DHT22;11489;50.834;6.752;2023-07-31T14:38:01;22.50;82.20
22645;DHT22;11489;50.834;6.752;2023-07-31T14:40:27;22.50;82.50
22645;DHT22;11489;50.834;6.752;2023-07-31T14:42:53;22.40;82.30
22645;DHT22;11489;50.834;6.752;2023-07-31T14:45:18;22.40;82.00
22645;DHT22;11489;50.834;6.752;2023-07-31T14:47:44;22.20;82.00
22645;DHT22;11489;50.834;6.752;2023-07-31T14:50:10;22.10;81.80
22645;DHT22;11489;50.834;6.752;2023-07-31T14:52:36;22.00;82.00
22645;DHT22;11489;50.834;6.752;2023-07-31T14:55:02;21.90;82.30
22645;DHT22;11489;50.834;6.752;2023-07-31T14:57:27;21.90;82.20
22645;DHT22;11489;50.834;6.752;2023-07-31T14:59:53;21.80;82.40
22645;DHT22;11489;50.834;6.752;2023-07-31T15:02:18;21.70;82.60
22645;DHT22;11489;50.834;6.752;2023-07-31T15:04:44;21.60;82.90
22645;DHT22;11489;50.834;6.752;2023-07-31T15:07:10;21.60;83.40
22645;DHT22;11489;50.834;6.752;2023-07-31T15:09:35;21.50;83.30
22645;DHT22;11489;50.834;6.752;2023-07-31T15:12:01;21.50;83.30
22645;DHT22;11489;50.834;6.752;2023-07-31T15:14:27;21.50;83.40
22645;DHT22;11489;50.834;6.752;2023-07-31T15:16:53;21.40;83.60
22645;DHT22;11489;50.834;6.752;2023-07-31T15:19:19;21.40;83.70
22645;DHT22;11489;50.834;6.752;2023-07-31T15:21:45;21.40;83.70
22645;DHT22;11489;50.834;6.752;2023-07-31T15:24:10;21.30;83.70
22645;DHT22;11489;50.834;6.752;2023-07-31T15:26:37;21.30;83.70
22645;DHT22;11489;50.834;6.752;2023-07-31T15:29:21;21.30;83.80
22645;DHT22;11489;50.834;6.752;2023-07-31T15:31:47;21.20;83.90
22645;DHT22;11489;50.834;6.752;2023-07-31T15:34:13;21.20;84.00
22645;DHT22;11489;50.834;6.752;2023-07-31T15:36:39;21.20;84.20
22645;DHT22;11489;50.834;6.752;2023-07-31T15:39:05;21.20;84.20
22645;DHT22;11489;50.834;6.752;2023-07-31T15:41:37;21.10;84.10
22645;DHT22;11489;50.834;6.752;2023-07-31T15:44:06;21.10;84.10
22645;DHT22;11489;50.834;6.752;2023-07-31T15:46:32;21.10;84.10
22645;DHT22;11489;50.834;6.752;2023-07-31T15:48:58;21.00;84.40